createdAt,value
2023-02-02T00:01:23.009Z,85.96
2023-02-02T00:03:50.828Z,86.18
2023-02-02T00:06:19.282Z,86.10
2023-02-02T00:08:46.316Z,86.09
2023-02-02T00:11:13.368Z,86.12
2023-02-02T00:13:40.014Z,86.22
2023-02-02T00:16:25.737Z,85.94
2023-02-02T00:18:53.840Z,85.94
2023-02-02T00:21:20.785Z,86.06
2023-02-02T00:23:47.846Z,86.16
2023-02-02T00:26:14.899Z,86.06
2023-02-02T00:28:41.978Z,86.07
2023-02-02T00:31:09.445Z,85.96
2023-02-02T00:33:36.361Z,86.10
2023-02-02T00:36:04.212Z,86.07
2023-02-02T00:38:31.983Z,85.97
2023-02-02T00:40:58.720Z,86.00
2023-02-02T00:43:25.405Z,85.93
2023-02-02T00:45:52.392Z,85.93
2023-02-02T00:48:19.227Z,85.84
2023-02-02T00:50:45.774Z,85.92
2023-02-02T00:53:12.682Z,85.72
2023-02-02T00:55:40.350Z,85.50
2023-02-02T00:58:07.994Z,85.51
2023-02-02T01:00:35.136Z,85.65
2023-02-02T01:03:03.828Z,85.44
2023-02-02T01:05:32.170Z,85.50
2023-02-02T01:07:59.169Z,85.72
2023-02-02T01:10:27.222Z,85.56
2023-02-02T01:12:54.110Z,85.69
2023-02-02T01:15:20.965Z,85.58
2023-02-02T01:17:49.372Z,85.82
2023-02-02T01:20:18.774Z,85.94
2023-02-02T01:22:46.967Z,86.02
2023-02-02T01:25:15.044Z,85.91
2023-02-02T01:27:43.267Z,86.16
2023-02-02T01:30:10.832Z,86.29
2023-02-02T01:32:37.797Z,86.35
2023-02-02T01:35:04.747Z,86.44
2023-02-02T01:37:31.470Z,86.50
2023-02-02T01:39:58.412Z,86.57
2023-02-02T01:42:25.860Z,86.85
2023-02-02T01:44:55.558Z,86.87
2023-02-02T01:47:31.338Z,86.91
2023-02-02T01:49:58.405Z,87.06
2023-02-02T01:52:28.592Z,87.02
2023-02-02T01:55:03.973Z,87.16
2023-02-02T01:57:58.715Z,87.20
2023-02-02T02:00:27.250Z,87.52
2023-02-02T02:03:00.126Z,87.48
2023-02-02T02:05:35.123Z,87.24
2023-02-02T02:08:16.978Z,87.54
2023-02-02T02:10:43.805Z,87.55
2023-02-02T02:13:12.235Z,87.44
2023-02-02T02:16:18.914Z,87.37
2023-02-02T02:19:01.787Z,87.44
2023-02-02T02:22:04.118Z,87.43
2023-02-02T02:25:08.387Z,87.70
2023-02-02T02:28:09.050Z,87.80
2023-02-02T02:30:54.110Z,87.78
2023-02-02T02:33:56.717Z,88.06
2023-02-02T02:36:49.052Z,88.09
2023-02-02T02:39:31.522Z,88.03
2023-02-02T02:42:04.321Z,88.22
2023-02-02T02:44:33.228Z,88.30
2023-02-02T02:47:00.402Z,88.25
2023-02-02T02:49:28.003Z,88.28
2023-02-02T02:51:56.121Z,88.38
2023-02-02T02:54:35.505Z,88.43
2023-02-02T02:57:32.000Z,88.27
2023-02-02T03:00:19.471Z,88.25
2023-02-02T03:03:11.433Z,88.49
2023-02-02T03:06:02.607Z,88.33
2023-02-02T03:08:39.476Z,88.25
2023-02-02T03:11:09.317Z,88.22
2023-02-02T03:13:36.365Z,88.38
2023-02-02T03:16:04.243Z,88.14
2023-02-02T03:18:32.552Z,88.16
2023-02-02T03:20:59.433Z,88.26
2023-02-02T03:23:26.725Z,88.19
2023-02-02T03:25:54.286Z,88.11
2023-02-02T03:28:23.532Z,88.20
2023-02-02T03:30:51.461Z,88.26
2023-02-02T03:33:18.954Z,88.23
2023-02-02T03:35:45.673Z,88.09
2023-02-02T03:38:12.634Z,87.90
2023-02-02T03:40:40.229Z,87.97
2023-02-02T03:43:07.642Z,87.83
2023-02-02T03:45:35.081Z,87.77
2023-02-02T03:48:05.234Z,87.87
2023-02-02T03:50:33.094Z,87.76
2023-02-02T03:53:00.161Z,87.76
2023-02-02T03:55:27.081Z,87.60
2023-02-02T03:57:53.610Z,87.78
2023-02-02T04:00:20.796Z,87.66
2023-02-02T04:02:47.730Z,87.79
2023-02-02T04:05:14.460Z,87.59
2023-02-02T04:07:41.220Z,87.54
2023-02-02T04:10:08.836Z,87.49
2023-02-02T04:12:35.660Z,87.44
2023-02-02T04:15:02.781Z,87.46
2023-02-02T04:17:29.530Z,87.40
2023-02-02T04:19:57.942Z,87.41
2023-02-02T04:22:25.791Z,87.20
2023-02-02T04:24:53.250Z,87.27
2023-02-02T04:27:19.985Z,87.19
2023-02-02T04:29:46.871Z,87.03
2023-02-02T04:32:17.397Z,87.15
2023-02-02T04:34:44.080Z,86.97
2023-02-02T04:37:11.263Z,86.87
2023-02-02T04:39:37.995Z,86.66
2023-02-02T04:42:04.856Z,86.64
2023-02-02T04:44:32.035Z,86.67
2023-02-02T04:46:58.822Z,86.60
2023-02-02T04:49:25.540Z,86.49
2023-02-02T04:51:52.173Z,86.39
2023-02-02T04:54:18.942Z,86.34
2023-02-02T04:56:45.575Z,86.22
2023-02-02T04:59:12.402Z,86.26
2023-02-02T05:01:39.247Z,86.26
2023-02-02T05:04:06.058Z,86.08
2023-02-02T05:06:32.941Z,86.17
2023-02-02T05:09:00.608Z,85.88
2023-02-02T05:11:27.423Z,85.99
2023-02-02T05:13:54.247Z,85.98
2023-02-02T05:16:22.564Z,85.87
2023-02-02T05:18:50.884Z,85.67
2023-02-02T05:21:17.707Z,85.70
2023-02-02T05:23:44.555Z,85.73
2023-02-02T05:26:17.044Z,85.62
2023-02-02T05:28:44.263Z,85.41
2023-02-02T05:31:11.302Z,85.50
2023-02-02T05:33:37.964Z,85.48
2023-02-02T05:36:05.362Z,85.64
2023-02-02T05:38:32.315Z,85.42
2023-02-02T05:40:59.603Z,85.23
2023-02-02T05:43:28.633Z,85.23
2023-02-02T05:45:56.338Z,85.32
2023-02-02T05:48:23.210Z,85.28
2023-02-02T05:51:00.283Z,85.16
2023-02-02T05:53:29.179Z,85.15
2023-02-02T05:55:55.720Z,84.96
2023-02-02T05:58:22.547Z,84.95
2023-02-02T06:00:49.225Z,84.77
2023-02-02T06:03:16.053Z,84.75
2023-02-02T06:05:42.904Z,84.85
2023-02-02T06:08:09.624Z,84.73
2023-02-02T06:10:39.413Z,84.54
2023-02-02T06:13:06.179Z,84.46
2023-02-02T06:15:34.163Z,84.42
2023-02-02T06:18:01.605Z,84.40
2023-02-02T06:20:28.773Z,84.64
2023-02-02T06:22:55.467Z,84.74
2023-02-02T06:25:22.833Z,84.93
2023-02-02T06:27:49.740Z,85.07
2023-02-02T06:30:16.923Z,85.27
2023-02-02T06:32:43.495Z,85.21
2023-02-02T06:35:10.448Z,85.34
2023-02-02T06:37:38.547Z,85.42
2023-02-02T06:40:06.950Z,85.66
2023-02-02T06:42:33.854Z,85.61
2023-02-02T06:45:00.821Z,85.67
2023-02-02T06:47:27.575Z,85.84
2023-02-02T06:49:54.391Z,85.84
2023-02-02T06:52:21.186Z,86.06
2023-02-02T06:54:47.869Z,85.95
2023-02-02T06:57:14.507Z,86.09
2023-02-02T06:59:41.484Z,86.15
2023-02-02T07:02:12.693Z,86.27
2023-02-02T07:04:39.775Z,86.27
2023-02-02T07:07:06.846Z,86.30
2023-02-02T07:09:34.738Z,86.32
2023-02-02T07:12:01.764Z,86.23
2023-02-02T07:14:28.636Z,86.19
2023-02-02T07:16:55.288Z,86.34
2023-02-02T07:19:21.968Z,86.34
2023-02-02T07:21:49.048Z,86.44
2023-02-02T07:24:15.966Z,86.47
2023-02-02T07:26:42.772Z,86.62
2023-02-02T07:29:13.554Z,86.73
2023-02-02T07:31:40.444Z,86.70
2023-02-02T07:34:07.607Z,86.78
2023-02-02T07:36:35.114Z,86.74
2023-02-02T07:39:04.094Z,86.60
2023-02-02T07:41:30.942Z,86.71
2023-02-02T07:43:57.858Z,86.49
2023-02-02T07:46:24.701Z,86.33
2023-02-02T07:48:55.108Z,86.59
2023-02-02T07:51:23.370Z,86.71
2023-02-02T07:53:52.832Z,86.57
2023-02-02T07:56:25.049Z,86.59
2023-02-02T07:58:54.433Z,86.62
2023-02-02T08:01:22.555Z,86.64
2023-02-02T08:03:50.093Z,86.77
2023-02-02T08:06:28.191Z,86.78
2023-02-02T08:08:55.069Z,86.83
2023-02-02T08:11:23.330Z,87.07
2023-02-02T08:13:52.399Z,87.19
2023-02-02T08:16:19.528Z,87.14
2023-02-02T08:18:46.845Z,87.20
2023-02-02T08:21:14.414Z,87.20
2023-02-02T08:23:41.999Z,87.20
2023-02-02T08:26:10.710Z,87.42
2023-02-02T08:28:39.022Z,87.41
2023-02-02T08:31:15.101Z,87.54
2023-02-02T08:33:42.456Z,87.59
2023-02-02T08:36:18.552Z,87.63
2023-02-02T08:38:46.010Z,87.61
2023-02-02T08:41:15.948Z,87.72
2023-02-02T08:43:43.614Z,87.76
2023-02-02T08:46:12.451Z,87.79
2023-02-02T08:48:39.735Z,87.83
2023-02-02T08:51:09.560Z,87.89
2023-02-02T08:53:36.518Z,88.01
2023-02-02T08:56:06.065Z,87.93
2023-02-02T08:58:33.904Z,88.06
2023-02-02T09:01:19.048Z,88.08
2023-02-02T09:03:46.431Z,88.19
2023-02-02T09:06:16.456Z,88.06
2023-02-02T09:08:44.319Z,88.19
2023-02-02T09:11:14.373Z,88.23
2023-02-02T09:13:42.407Z,88.24
2023-02-02T09:16:11.239Z,88.25
2023-02-02T09:18:39.446Z,88.18
2023-02-02T09:21:08.943Z,88.07
2023-02-02T09:23:38.660Z,88.15
2023-02-02T09:26:18.185Z,88.12
2023-02-02T09:28:48.030Z,88.14
2023-02-02T09:31:15.748Z,88.04
2023-02-02T09:33:42.751Z,88.04
2023-02-02T09:36:22.304Z,88.16
2023-02-02T09:38:50.824Z,88.05
2023-02-02T09:41:29.799Z,88.14
2023-02-02T09:44:02.381Z,87.93
2023-02-02T09:46:50.845Z,88.05
2023-02-02T09:49:23.224Z,88.08
2023-02-02T09:51:57.000Z,87.90
2023-02-02T09:54:55.590Z,87.88
2023-02-02T09:57:30.823Z,88.02
2023-02-02T09:59:59.149Z,88.02
2023-02-02T10:02:45.469Z,88.11
2023-02-02T10:05:22.792Z,88.14
2023-02-02T10:07:56.188Z,88.05
2023-02-02T10:10:32.866Z,87.97
2023-02-02T10:13:13.521Z,88.18
2023-02-02T10:16:22.106Z,88.18
2023-02-02T10:19:02.820Z,88.16
2023-02-02T10:21:45.751Z,88.27
2023-02-02T10:24:22.718Z,88.33
2023-02-02T10:26:53.608Z,88.37
2023-02-02T10:29:48.397Z,88.61
2023-02-02T10:32:21.951Z,88.62
2023-02-02T10:35:19.909Z,88.57
2023-02-02T10:38:10.056Z,88.79
2023-02-02T10:40:48.964Z,88.64
2023-02-02T10:43:47.046Z,88.73
2023-02-02T10:46:30.040Z,88.64
2023-02-02T10:49:39.973Z,88.75
2023-02-02T10:52:10.511Z,88.57
2023-02-02T10:54:55.788Z,88.46
2023-02-02T10:57:53.266Z,88.49
2023-02-02T11:00:23.303Z,88.52
2023-02-02T11:02:52.537Z,88.47
2023-02-02T11:05:46.429Z,88.50
2023-02-02T11:08:20.410Z,88.46
2023-02-02T11:10:52.268Z,88.52
2023-02-02T11:13:27.517Z,88.19
2023-02-02T11:16:16.436Z,88.20
2023-02-02T11:18:44.383Z,88.13
2023-02-02T11:21:32.185Z,88.21
2023-02-02T11:24:07.093Z,88.18
2023-02-02T11:26:49.787Z,88.46
2023-02-02T11:29:39.848Z,88.41
2023-02-02T11:32:32.295Z,88.44
2023-02-02T11:35:02.094Z,88.57
2023-02-02T11:37:30.374Z,88.43
2023-02-02T11:40:23.906Z,88.35
2023-02-02T11:42:52.457Z,88.39
2023-02-02T11:45:29.014Z,88.61
2023-02-02T11:48:02.193Z,88.67
2023-02-02T11:50:29.039Z,88.61
2023-02-02T11:52:59.496Z,88.55
2023-02-02T11:55:29.744Z,88.75
2023-02-02T11:58:24.439Z,88.65
2023-02-02T12:01:03.099Z,88.72
2023-02-02T12:03:32.821Z,88.82
2023-02-02T12:06:22.002Z,88.71
2023-02-02T12:08:49.897Z,88.62
2023-02-02T12:11:47.957Z,88.43
2023-02-02T12:14:24.717Z,88.38
2023-02-02T12:17:12.352Z,88.48
2023-02-02T12:20:07.098Z,88.36
2023-02-02T12:23:11.003Z,88.43
2023-02-02T12:25:56.319Z,88.25
2023-02-02T12:28:49.063Z,88.39
2023-02-02T12:31:35.206Z,88.37
2023-02-02T12:34:06.286Z,88.67
2023-02-02T12:36:39.033Z,88.50
2023-02-02T12:39:33.975Z,88.65
2023-02-02T12:42:33.371Z,88.71
2023-02-02T12:45:09.686Z,88.93
2023-02-02T12:47:49.716Z,88.65
2023-02-02T12:50:42.145Z,88.72
2023-02-02T12:53:27.918Z,88.67
2023-02-02T12:56:04.363Z,88.34
2023-02-02T12:58:55.696Z,87.78
2023-02-02T13:01:38.803Z,87.38
2023-02-02T13:04:22.542Z,86.95
2023-02-02T13:06:58.210Z,86.55
2023-02-02T13:09:57.941Z,86.49
2023-02-02T13:12:26.322Z,86.69
2023-02-02T13:14:58.065Z,86.51
2023-02-02T13:17:27.938Z,86.75
2023-02-02T13:20:03.934Z,86.85
2023-02-02T13:22:45.122Z,87.15
2023-02-02T13:25:57.173Z,87.18
2023-02-02T13:28:42.024Z,87.38
2023-02-02T13:31:26.992Z,87.42
2023-02-02T13:34:20.254Z,87.57
2023-02-02T13:36:54.267Z,87.67
2023-02-02T13:39:33.111Z,87.78
2023-02-02T13:42:02.304Z,87.91
2023-02-02T13:44:38.359Z,87.89
2023-02-02T13:47:11.079Z,88.00
2023-02-02T13:49:44.663Z,88.01
2023-02-02T13:52:40.220Z,87.83
2023-02-02T13:55:28.740Z,87.59
2023-02-02T13:58:16.182Z,87.03
2023-02-02T14:01:08.891Z,87.05
2023-02-02T14:03:39.484Z,87.11
2023-02-02T14:06:11.310Z,86.87
2023-02-02T14:08:48.816Z,86.96
2023-02-02T14:11:20.662Z,86.59
2023-02-02T14:14:08.600Z,86.74
2023-02-02T14:16:35.586Z,86.11
2023-02-02T14:19:16.615Z,85.41
2023-02-02T14:21:43.495Z,85.07
2023-02-02T14:24:25.909Z,84.85
2023-02-02T14:26:58.632Z,84.60
2023-02-02T14:29:30.605Z,84.71
2023-02-02T14:31:59.706Z,84.65
2023-02-02T14:34:35.566Z,84.62
2023-02-02T14:37:13.113Z,84.52
2023-02-02T14:39:54.255Z,84.37
2023-02-02T14:42:49.090Z,84.37
2023-02-02T14:45:25.350Z,84.09
2023-02-02T14:48:00.931Z,84.14
2023-02-02T14:50:42.252Z,84.09
2023-02-02T14:53:12.726Z,84.09
2023-02-02T14:55:57.331Z,84.10
2023-02-02T14:58:33.696Z,83.97
2023-02-02T15:01:09.818Z,84.07
2023-02-02T15:03:48.332Z,83.97
2023-02-02T15:06:35.361Z,83.90
2023-02-02T15:09:26.098Z,83.69
2023-02-02T15:12:00.825Z,83.21
2023-02-02T15:14:43.650Z,83.23
2023-02-02T15:17:41.200Z,83.15
2023-02-02T15:20:23.932Z,82.93
2023-02-02T15:23:06.655Z,82.87
2023-02-02T15:25:41.016Z,82.62
2023-02-02T15:28:45.274Z,82.48
2023-02-02T15:31:31.844Z,82.34
2023-02-02T15:34:22.276Z,82.20
2023-02-02T15:36:56.123Z,82.14
2023-02-02T15:39:42.592Z,82.12
2023-02-02T15:42:52.503Z,82.15
2023-02-02T15:45:29.118Z,81.76
2023-02-02T15:48:04.928Z,81.64
2023-02-02T15:50:32.111Z,81.67
2023-02-02T15:52:58.819Z,81.77
2023-02-02T15:55:35.233Z,81.71
2023-02-02T15:58:03.377Z,81.48
2023-02-02T16:00:33.156Z,81.59
2023-02-02T16:03:03.417Z,81.68
2023-02-02T16:05:36.210Z,81.84
2023-02-02T16:08:14.977Z,81.94
2023-02-02T16:10:41.770Z,81.86
2023-02-02T16:13:21.040Z,82.00
2023-02-02T16:15:55.329Z,81.96
2023-02-02T16:18:22.169Z,82.01
2023-02-02T16:20:49.553Z,81.92
2023-02-02T16:23:25.514Z,81.90
2023-02-02T16:25:55.396Z,82.13
2023-02-02T16:28:23.009Z,82.09
2023-02-02T16:30:53.483Z,81.98
2023-02-02T16:33:38.433Z,82.17
2023-02-02T16:36:25.510Z,82.39
2023-02-02T16:38:55.399Z,82.11
2023-02-02T16:41:33.991Z,82.32
2023-02-02T16:44:30.905Z,82.41
2023-02-02T16:46:58.726Z,82.19
2023-02-02T16:49:26.978Z,82.33
2023-02-02T16:52:13.157Z,82.43
2023-02-02T16:54:44.910Z,82.61
2023-02-02T16:57:19.011Z,82.58
2023-02-02T16:59:52.320Z,82.56
2023-02-02T17:02:36.147Z,82.73
2023-02-02T17:05:10.163Z,82.64
2023-02-02T17:07:37.786Z,82.76
2023-02-02T17:10:16.476Z,82.74
2023-02-02T17:12:46.011Z,82.67
2023-02-02T17:15:15.766Z,82.64
2023-02-02T17:17:55.631Z,82.54
2023-02-02T17:20:23.479Z,82.60
2023-02-02T17:23:03.913Z,82.40
2023-02-02T17:25:36.558Z,82.50
2023-02-02T17:28:11.051Z,82.65
2023-02-02T17:30:42.881Z,82.59
2023-02-02T17:33:15.015Z,82.63
2023-02-02T17:35:54.504Z,82.58
2023-02-02T17:38:23.658Z,82.40
2023-02-02T17:40:51.097Z,82.41
2023-02-02T17:43:17.797Z,82.54
2023-02-02T17:45:44.898Z,82.60
2023-02-02T17:48:13.156Z,82.61
2023-02-02T17:50:40.991Z,82.63
2023-02-02T17:53:13.863Z,82.57
2023-02-02T17:55:43.222Z,82.63
2023-02-02T17:58:12.795Z,82.76
2023-02-02T18:00:47.907Z,82.62
2023-02-02T18:03:23.323Z,82.70
2023-02-02T18:05:50.630Z,82.70
2023-02-02T18:08:18.355Z,82.97
2023-02-02T18:10:45.189Z,82.92
2023-02-02T18:13:15.676Z,82.74
2023-02-02T18:15:43.271Z,82.96
2023-02-02T18:18:13.864Z,82.93
2023-02-02T18:20:49.087Z,82.88
2023-02-02T18:23:17.587Z,83.00
2023-02-02T18:25:44.711Z,83.00
2023-02-02T18:28:13.343Z,83.14
2023-02-02T18:30:41.300Z,83.20
2023-02-02T18:33:11.268Z,83.16
2023-02-02T18:35:45.826Z,83.03
2023-02-02T18:38:14.063Z,82.92
2023-02-02T18:40:41.286Z,82.94
2023-02-02T18:43:08.133Z,82.90
2023-02-02T18:45:35.902Z,83.04
2023-02-02T18:48:02.570Z,83.07
2023-02-02T18:50:29.261Z,82.93
2023-02-02T18:52:56.148Z,83.04
2023-02-02T18:55:22.821Z,82.79
2023-02-02T18:57:49.707Z,82.85
2023-02-02T19:00:16.655Z,82.85
2023-02-02T19:02:43.417Z,82.88
2023-02-02T19:05:29.049Z,82.87
2023-02-02T19:07:55.965Z,82.95
2023-02-02T19:10:24.305Z,83.00
2023-02-02T19:13:09.953Z,82.86
2023-02-02T19:15:39.008Z,82.80
2023-02-02T19:18:19.079Z,82.96
2023-02-02T19:20:47.566Z,82.84
2023-02-02T19:23:41.494Z,82.84
2023-02-02T19:26:25.050Z,82.98
2023-02-02T19:28:53.391Z,83.04
2023-02-02T19:31:21.845Z,82.83
2023-02-02T19:33:53.832Z,82.85
2023-02-02T19:36:23.112Z,82.89
2023-02-02T19:39:15.685Z,82.76
2023-02-02T19:41:42.689Z,82.77
2023-02-02T19:44:16.274Z,82.77
2023-02-02T19:46:45.420Z,82.75
2023-02-02T19:49:33.856Z,82.90
2023-02-02T19:52:03.483Z,82.85
2023-02-02T19:54:41.581Z,82.99
2023-02-02T19:57:38.076Z,82.92
2023-02-02T20:00:30.720Z,82.94
2023-02-02T20:03:06.986Z,82.83
2023-02-02T20:05:44.060Z,82.90
2023-02-02T20:08:39.445Z,83.01
2023-02-02T20:11:37.651Z,82.98
2023-02-02T20:14:28.865Z,83.02
2023-02-02T20:17:13.628Z,82.87
2023-02-02T20:19:43.432Z,82.82
2023-02-02T20:22:32.256Z,82.79
2023-02-02T20:25:05.870Z,82.49
2023-02-02T20:27:33.644Z,82.55
2023-02-02T20:30:23.050Z,82.54
2023-02-02T20:32:54.699Z,82.47
2023-02-02T20:35:39.246Z,82.68
2023-02-02T20:38:37.553Z,82.57
2023-02-02T20:41:05.827Z,82.62
2023-02-02T20:43:34.605Z,82.61
2023-02-02T20:46:01.359Z,82.49
2023-02-02T20:48:28.915Z,82.52
2023-02-02T20:50:55.744Z,82.58
2023-02-02T20:53:22.572Z,82.67
2023-02-02T20:55:49.767Z,82.54
2023-02-02T20:58:16.680Z,82.61
2023-02-02T21:00:43.566Z,82.69
2023-02-02T21:03:12.944Z,82.70
2023-02-02T21:05:39.942Z,82.78
2023-02-02T21:08:06.791Z,82.72
2023-02-02T21:10:34.112Z,82.68
2023-02-02T21:13:01.303Z,82.90
2023-02-02T21:15:28.389Z,82.87
2023-02-02T21:17:55.708Z,82.91
2023-02-02T21:20:22.727Z,82.96
2023-02-02T21:22:49.506Z,83.00
2023-02-02T21:25:16.491Z,82.97
2023-02-02T21:27:44.127Z,82.92
2023-02-02T21:30:13.613Z,82.85
2023-02-02T21:32:40.512Z,82.79
2023-02-02T21:35:07.618Z,82.83
2023-02-02T21:37:36.792Z,82.74
2023-02-02T21:40:12.385Z,82.77
2023-02-02T21:42:44.781Z,82.77
2023-02-02T21:45:36.803Z,82.99
2023-02-02T21:48:22.427Z,82.80
2023-02-02T21:50:49.148Z,82.64
2023-02-02T21:53:23.203Z,82.62
2023-02-02T21:55:54.988Z,82.76
2023-02-02T21:58:39.312Z,82.78
2023-02-02T22:01:21.322Z,82.74
2023-02-02T22:03:49.686Z,82.84
2023-02-02T22:06:26.923Z,82.68
2023-02-02T22:09:13.484Z,82.65
2023-02-02T22:12:11.104Z,82.58
2023-02-02T22:14:40.262Z,82.50
2023-02-02T22:17:28.963Z,82.67
2023-02-02T22:20:02.269Z,82.65
2023-02-02T22:22:35.477Z,82.78
2023-02-02T22:25:20.334Z,82.96
2023-02-02T22:27:50.745Z,82.93
2023-02-02T22:30:39.329Z,83.09
2023-02-02T22:33:08.617Z,83.20
2023-02-02T22:35:36.299Z,83.02
2023-02-02T22:38:04.245Z,83.05
2023-02-02T22:40:31.092Z,83.07
2023-02-02T22:43:01.132Z,83.07
2023-02-02T22:45:28.428Z,83.15
2023-02-02T22:47:55.460Z,83.34
2023-02-02T22:50:25.217Z,83.39
2023-02-02T22:52:52.319Z,83.43
2023-02-02T22:55:19.539Z,83.28
2023-02-02T22:57:46.529Z,83.13
2023-02-02T23:00:16.876Z,83.21
2023-02-02T23:02:43.822Z,83.14
2023-02-02T23:05:14.425Z,83.05
2023-02-02T23:07:45.119Z,83.05
2023-02-02T23:10:14.202Z,83.08
2023-02-02T23:12:42.290Z,83.16
2023-02-02T23:15:10.381Z,83.20
2023-02-02T23:17:37.232Z,83.24
2023-02-02T23:20:11.890Z,83.30
2023-02-02T23:22:38.707Z,83.28
2023-02-02T23:25:06.052Z,83.18
2023-02-02T23:27:32.825Z,83.04
2023-02-02T23:29:59.559Z,82.96
2023-02-02T23:32:26.351Z,82.88
